createdAt,value
2023-03-06T00:01:02.096Z,3.20
2023-03-06T00:06:03.122Z,3.30
2023-03-06T00:11:05.241Z,3.03
2023-03-06T00:16:07.034Z,3.80
2023-03-06T00:21:08.759Z,2.95
2023-03-06T00:26:11.496Z,2.78
2023-03-06T00:31:14.216Z,3.88
2023-03-06T00:36:14.911Z,3.45
2023-03-06T00:41:16.915Z,4.47
2023-03-06T00:46:17.562Z,3.50
2023-03-06T00:51:19.739Z,3.47
2023-03-06T00:56:21.787Z,3.97
2023-03-06T01:01:23.264Z,3.90
2023-03-06T01:06:24.936Z,3.85
2023-03-06T01:11:27.149Z,4.00
2023-03-06T01:16:28.264Z,3.83
2023-03-06T01:21:28.963Z,3.95
2023-03-06T01:26:31.680Z,3.70
2023-03-06T01:31:32.407Z,4.03
2023-03-06T01:36:33.260Z,4.05
2023-03-06T01:41:37.912Z,4.47
2023-03-06T01:46:42.131Z,3.92
2023-03-06T01:51:48.563Z,5.07
2023-03-06T01:56:55.009Z,4.88
2023-03-06T02:01:57.120Z,4.60
2023-03-06T02:07:00.270Z,5.07
2023-03-06T02:12:02.893Z,4.80
2023-03-06T02:17:04.083Z,4.80
2023-03-06T02:22:06.305Z,4.20
2023-03-06T02:27:10.863Z,5.22
2023-03-06T02:32:11.759Z,4.57
2023-03-06T02:37:12.600Z,4.90
2023-03-06T02:42:20.177Z,5.13
2023-03-06T02:47:21.262Z,4.82
2023-03-06T02:52:25.385Z,5.07
2023-03-06T02:57:27.522Z,6.10
2023-03-06T03:02:29.694Z,5.60
2023-03-06T03:07:30.568Z,5.85
2023-03-06T03:12:33.155Z,5.32
2023-03-06T03:17:36.540Z,5.63
2023-03-06T03:22:37.287Z,5.65
2023-03-06T03:27:40.495Z,6.55
2023-03-06T03:32:41.505Z,6.05
2023-03-06T03:37:43.339Z,5.50
2023-03-06T03:42:45.517Z,6.20
2023-03-06T03:47:47.438Z,6.07
2023-03-06T03:52:48.467Z,5.80
2023-03-06T03:57:50.954Z,5.95
2023-03-06T04:02:52.506Z,6.07
2023-03-06T04:08:04.330Z,6.00
2023-03-06T04:13:09.959Z,6.68
2023-03-06T04:18:16.334Z,6.47
2023-03-06T04:23:18.383Z,5.72
2023-03-06T04:28:22.021Z,6.35
2023-03-06T04:33:23.205Z,5.82
2023-03-06T04:38:24.037Z,6.47
2023-03-06T04:43:26.414Z,6.65
2023-03-06T04:48:27.117Z,5.97
2023-03-06T04:53:27.901Z,6.53
2023-03-06T04:58:29.927Z,5.95
2023-03-06T05:03:30.615Z,6.35
2023-03-06T05:08:32.006Z,5.72
2023-03-06T05:13:34.203Z,6.53
2023-03-06T05:18:36.165Z,6.43
2023-03-06T05:23:38.625Z,6.22
2023-03-06T05:28:41.431Z,5.50
2023-03-06T05:33:42.238Z,6.20
2023-03-06T05:38:43.301Z,5.90
2023-03-06T05:43:45.321Z,7.13
2023-03-06T05:48:46.929Z,6.68
2023-03-06T05:53:47.929Z,6.25
2023-03-06T05:58:50.933Z,6.65
2023-03-06T06:03:51.855Z,6.47
2023-03-06T06:08:52.558Z,6.03
2023-03-06T06:13:56.720Z,7.28
2023-03-06T06:18:58.544Z,6.68
2023-03-06T06:23:59.268Z,7.32
2023-03-06T06:29:01.249Z,7.32
2023-03-06T06:34:02.097Z,7.03
2023-03-06T06:39:03.570Z,7.30
2023-03-06T06:44:08.892Z,8.00
2023-03-06T06:49:09.645Z,8.00
2023-03-06T06:54:11.953Z,8.18
2023-03-06T06:59:17.223Z,7.70
2023-03-06T07:04:19.148Z,7.05
2023-03-06T07:09:20.127Z,7.25
2023-03-06T07:14:22.149Z,8.38
2023-03-06T07:19:22.888Z,7.88
2023-03-06T07:24:23.606Z,7.93
2023-03-06T07:29:25.599Z,7.88
2023-03-06T07:34:26.284Z,7.55
2023-03-06T07:39:28.168Z,8.07
2023-03-06T07:44:30.303Z,7.80
2023-03-06T07:49:30.936Z,8.35
2023-03-06T07:54:32.712Z,8.18
2023-03-06T07:59:35.760Z,7.43
2023-03-06T08:04:36.434Z,6.97
2023-03-06T08:09:37.210Z,7.95
2023-03-06T08:14:39.198Z,7.32
2023-03-06T08:19:39.910Z,8.05
2023-03-06T08:24:40.668Z,8.30
2023-03-06T08:29:42.681Z,8.02
2023-03-06T08:34:45.550Z,7.65
2023-03-06T08:39:46.236Z,7.50
2023-03-06T08:44:48.286Z,7.50
2023-03-06T08:49:49.156Z,8.00
2023-03-06T08:54:49.818Z,8.98
2023-03-06T08:59:51.822Z,8.38
2023-03-06T09:04:52.508Z,7.45
2023-03-06T09:09:56.946Z,7.88
2023-03-06T09:14:58.986Z,8.70
2023-03-06T09:19:59.735Z,8.38
2023-03-06T09:25:00.813Z,8.05
2023-03-06T09:30:02.998Z,8.55
2023-03-06T09:35:03.695Z,9.25
2023-03-06T09:40:06.851Z,8.45
2023-03-06T09:45:13.089Z,8.85
2023-03-06T09:50:29.553Z,9.93
2023-03-06T09:55:33.432Z,9.20
2023-03-06T10:00:39.693Z,9.35
2023-03-06T10:05:42.922Z,9.38
2023-03-06T10:10:47.955Z,9.13
2023-03-06T10:15:51.042Z,9.70
2023-03-06T10:21:13.450Z,9.63
2023-03-06T10:26:23.453Z,9.57
2023-03-06T10:31:27.752Z,10.43
2023-03-06T10:36:30.125Z,10.90
2023-03-06T10:41:32.964Z,10.23
2023-03-06T10:46:37.396Z,10.27
2023-03-06T10:51:38.244Z,11.52
2023-03-06T10:56:41.234Z,10.27
2023-03-06T11:01:45.335Z,12.05
2023-03-06T11:06:46.138Z,10.52
2023-03-06T11:11:46.885Z,11.65
2023-03-06T11:16:53.194Z,11.43
2023-03-06T11:22:02.321Z,12.55
2023-03-06T11:27:10.015Z,11.48
2023-03-06T11:32:17.532Z,11.85
2023-03-06T11:37:26.774Z,12.35
2023-03-06T11:42:30.506Z,13.65
2023-03-06T11:47:36.069Z,12.88
2023-03-06T11:52:47.781Z,13.48
2023-03-06T11:57:56.967Z,14.20
2023-03-06T12:03:25.142Z,14.25
2023-03-06T12:08:40.946Z,13.38
2023-03-06T12:13:58.311Z,14.80
2023-03-06T12:19:14.379Z,13.00
2023-03-06T12:24:30.400Z,13.15
2023-03-06T12:29:47.308Z,13.48
2023-03-06T12:35:06.081Z,12.27
2023-03-06T12:40:43.013Z,12.48
2023-03-06T12:45:45.381Z,12.25
2023-03-06T12:50:48.513Z,12.40
2023-03-06T12:55:50.757Z,12.60
2023-03-06T13:01:06.039Z,13.25
2023-03-06T13:06:26.465Z,12.23
2023-03-06T13:11:43.494Z,12.85
2023-03-06T13:16:44.274Z,10.45
2023-03-06T13:22:04.373Z,11.50
2023-03-06T13:27:10.459Z,12.05
2023-03-06T13:32:18.880Z,13.70
2023-03-06T13:37:51.881Z,12.27
2023-03-06T13:43:23.603Z,13.02
2023-03-06T13:48:43.684Z,12.52
2023-03-06T13:54:30.671Z,13.60
2023-03-06T14:00:13.651Z,13.98
2023-03-06T14:05:16.263Z,13.18
2023-03-06T14:10:23.847Z,12.95
2023-03-06T14:15:28.200Z,15.20
2023-03-06T14:20:36.423Z,12.70
2023-03-06T14:25:38.674Z,12.40
2023-03-06T14:30:50.429Z,12.93
2023-03-06T14:35:55.002Z,12.02
2023-03-06T14:40:58.403Z,12.55
2023-03-06T14:46:00.842Z,11.30
2023-03-06T14:51:02.820Z,13.50
2023-03-06T14:56:06.848Z,11.77
2023-03-06T15:01:10.461Z,11.43
2023-03-06T15:06:16.567Z,12.15
2023-03-06T15:11:18.662Z,10.32
2023-03-06T15:16:30.163Z,9.80
2023-03-06T15:21:36.193Z,8.55
2023-03-06T15:26:40.814Z,9.30
2023-03-06T15:31:43.367Z,8.52
2023-03-06T15:36:47.387Z,7.97
2023-03-06T15:41:49.494Z,8.52
2023-03-06T15:46:53.870Z,8.27
2023-03-06T15:51:59.862Z,8.20
2023-03-06T15:57:03.456Z,8.77
2023-03-06T16:02:14.417Z,8.30
2023-03-06T16:07:16.128Z,7.70
2023-03-06T16:12:20.036Z,8.68
2023-03-06T16:17:20.709Z,9.18
2023-03-06T16:22:21.379Z,11.38
2023-03-06T16:27:25.679Z,10.70
2023-03-06T16:32:28.696Z,9.55
2023-03-06T16:37:29.502Z,9.48
2023-03-06T16:42:32.022Z,10.30
2023-03-06T16:47:32.706Z,9.90
2023-03-06T16:52:33.504Z,9.25
2023-03-06T16:57:35.798Z,8.18
2023-03-06T17:02:36.659Z,8.68
2023-03-06T17:07:38.741Z,7.55
2023-03-06T17:12:40.809Z,9.00
2023-03-06T17:17:41.534Z,8.10
2023-03-06T17:22:45.406Z,9.07
2023-03-06T17:27:47.378Z,9.13
2023-03-06T17:32:48.071Z,8.75
2023-03-06T17:37:48.754Z,8.63
2023-03-06T17:42:50.872Z,9.15
2023-03-06T17:47:54.752Z,9.15
2023-03-06T17:52:55.424Z,8.98
2023-03-06T17:57:57.667Z,8.98
2023-03-06T18:02:58.341Z,9.63
2023-03-06T18:07:59.009Z,9.48
2023-03-06T18:13:00.966Z,8.10
2023-03-06T18:18:01.811Z,9.90
2023-03-06T18:23:03.775Z,10.25
2023-03-06T18:28:06.045Z,10.30
2023-03-06T18:33:06.813Z,9.43
2023-03-06T18:38:07.450Z,9.65
2023-03-06T18:43:09.419Z,10.30
2023-03-06T18:48:10.631Z,11.20
2023-03-06T18:53:11.340Z,9.65
2023-03-06T18:58:13.400Z,10.30
2023-03-06T19:03:14.496Z,9.18
2023-03-06T19:08:16.567Z,9.68
2023-03-06T19:13:18.684Z,10.32
2023-03-06T19:18:19.462Z,10.25
2023-03-06T19:23:21.195Z,9.90
2023-03-06T19:28:23.296Z,10.30
2023-03-06T19:33:23.969Z,11.13
2023-03-06T19:38:24.662Z,9.70
2023-03-06T19:43:26.776Z,11.05
2023-03-06T19:48:27.485Z,11.05
2023-03-06T19:53:28.320Z,10.20
2023-03-06T19:58:30.350Z,9.23
2023-03-06T20:03:31.158Z,10.40
2023-03-06T20:08:32.072Z,11.00
2023-03-06T20:13:34.204Z,10.95
2023-03-06T20:18:34.990Z,11.98
2023-03-06T20:23:36.073Z,11.75
2023-03-06T20:28:39.313Z,10.27
2023-03-06T20:33:40.474Z,10.23
2023-03-06T20:39:05.047Z,9.82
2023-03-06T20:44:08.989Z,11.07
2023-03-06T20:49:10.091Z,10.05
2023-03-06T20:54:13.847Z,10.73
2023-03-06T20:59:16.108Z,11.32
2023-03-06T21:04:17.357Z,11.45
2023-03-06T21:09:18.465Z,10.93
2023-03-06T21:14:20.585Z,11.88
2023-03-06T21:19:21.265Z,11.82
2023-03-06T21:24:22.406Z,11.50
2023-03-06T21:29:24.747Z,10.85
2023-03-06T21:34:25.473Z,11.38
2023-03-06T21:39:26.448Z,13.43
2023-03-06T21:44:28.607Z,11.45
2023-03-06T21:49:29.504Z,12.68
2023-03-06T21:54:30.201Z,12.13
2023-03-06T21:59:32.271Z,12.70
2023-03-06T22:04:33.058Z,12.98
2023-03-06T22:09:35.755Z,12.43
2023-03-06T22:14:37.862Z,14.25
2023-03-06T22:19:38.532Z,13.57
2023-03-06T22:24:39.380Z,14.35
2023-03-06T22:29:41.483Z,13.80
2023-03-06T22:34:42.264Z,13.95
2023-03-06T22:39:42.942Z,13.82
2023-03-06T22:44:45.183Z,15.43
2023-03-06T22:49:45.894Z,13.25
2023-03-06T22:54:46.649Z,13.30
2023-03-06T22:59:48.666Z,15.00
2023-03-06T23:04:52.232Z,13.93
2023-03-06T23:09:53.047Z,14.50
2023-03-06T23:15:13.932Z,14.07
2023-03-06T23:20:34.393Z,13.40
2023-03-06T23:25:53.920Z,14.02
2023-03-06T23:30:56.047Z,13.10
2023-03-06T23:35:56.758Z,13.63
2023-03-06T23:40:57.442Z,13.77
2023-03-06T23:46:00.198Z,14.18
2023-03-06T23:51:01.249Z,14.00
2023-03-06T23:56:02.280Z,13.65
